sensor_id;sensor_type;location;lat;lon;timestamp;pressure;altitude;pressure_sealevel;temperature;humidity
76122;BME280;70471;53.200;6.080;2023-12-14T00:01:33;101096.16;;;20.81;35.14
76122;BME280;70471;53.200;6.080;2023-12-14T00:06:24;101119.97;;;20.82;34.60
76122;BME280;70471;53.200;6.080;2023-12-14T00:11:17;101115.03;;;20.79;34.87
76122;BME280;70471;53.200;6.080;2023-12-14T00:16:08;101117.31;;;20.77;34.89
76122;BME280;70471;53.200;6.080;2023-12-14T00:21:00;101120.66;;;20.74;34.53
76122;BME280;70471;53.200;6.080;2023-12-14T00:25:51;101132.34;;;20.71;34.80
76122;BME280;70471;53.200;6.080;2023-12-14T00:30:44;101131.81;;;20.69;34.56
76122;BME280;70471;53.200;6.080;2023-12-14T00:35:35;101135.19;;;20.66;35.03
76122;BME280;70471;53.200;6.080;2023-12-14T00:40:27;101145.72;;;20.64;34.56
76122;BME280;70471;53.200;6.080;2023-12-14T00:45:18;101157.38;;;20.61;34.91
76122;BME280;70471;53.200;6.080;2023-12-14T00:50:11;101162.09;;;20.60;34.96
76122;BME280;70471;53.200;6.080;2023-12-14T00:55:03;101159.41;;;20.55;34.58
76122;BME280;70471;53.200;6.080;2023-12-14T00:59:55;101174.38;;;20.54;34.95
76122;BME280;70471;53.200;6.080;2023-12-14T01:04:46;101186.88;;;20.51;34.61
76122;BME280;70471;53.200;6.080;2023-12-14T01:09:39;101194.63;;;20.49;34.39
76122;BME280;70471;53.200;6.080;2023-12-14T01:14:30;101222.91;;;20.46;34.57
76122;BME280;70471;53.200;6.080;2023-12-14T01:19:22;101216.84;;;20.44;34.74
76122;BME280;70471;53.200;6.080;2023-12-14T01:24:15;101222.97;;;20.41;34.51
76122;BME280;70471;53.200;6.080;2023-12-14T01:29:08;101226.31;;;20.38;34.86
76122;BME280;70471;53.200;6.080;2023-12-14T01:33:59;101236.28;;;20.39;34.48
76122;BME280;70471;53.200;6.080;2023-12-14T01:38:51;101242.09;;;20.37;34.83
76122;BME280;70471;53.200;6.080;2023-12-14T01:43:43;101251.00;;;20.34;34.33
76122;BME280;70471;53.200;6.080;2023-12-14T01:48:36;101255.13;;;20.32;34.56
76122;BME280;70471;53.200;6.080;2023-12-14T01:53:28;101252.09;;;20.33;34.71
76122;BME280;70471;53.200;6.080;2023-12-14T01:58:19;101267.88;;;20.33;34.54
76122;BME280;70471;53.200;6.080;2023-12-14T02:03:11;101265.38;;;20.31;34.54
76122;BME280;70471;53.200;6.080;2023-12-14T02:08:04;101284.22;;;20.29;34.44
76122;BME280;70471;53.200;6.080;2023-12-14T02:12:55;101284.22;;;20.29;34.65
76122;BME280;70471;53.200;6.080;2023-12-14T02:17:47;101281.19;;;20.31;34.35
76122;BME280;70471;53.200;6.080;2023-12-14T02:22:49;101298.38;;;20.28;34.25
76122;BME280;70471;53.200;6.080;2023-12-14T02:27:41;101300.56;;;20.26;34.74
76122;BME280;70471;53.200;6.080;2023-12-14T02:32:32;101311.06;;;20.29;34.32
76122;BME280;70471;53.200;6.080;2023-12-14T02:37:24;101311.91;;;20.29;34.23
76122;BME280;70471;53.200;6.080;2023-12-14T02:42:16;101326.31;;;20.26;34.72
76122;BME280;70471;53.200;6.080;2023-12-14T02:47:08;101310.53;;;20.27;34.31
76122;BME280;70471;53.200;6.080;2023-12-14T02:51:59;101323.78;;;20.30;34.82
76122;BME280;70471;53.200;6.080;2023-12-14T02:56:51;101326.31;;;20.26;34.73
76122;BME280;70471;53.200;6.080;2023-12-14T03:01:43;101340.97;;;20.27;34.26
76122;BME280;70471;53.200;6.080;2023-12-14T03:06:35;101339.88;;;20.28;34.06
76122;BME280;70471;53.200;6.080;2023-12-14T03:11:26;101344.84;;;20.26;34.66
76122;BME280;70471;53.200;6.080;2023-12-14T03:16:18;101358.16;;;20.24;34.26
76122;BME280;70471;53.200;6.080;2023-12-14T03:21:10;101361.44;;;20.26;34.21
76122;BME280;70471;53.200;6.080;2023-12-14T03:26:02;101363.13;;;20.27;34.09
76122;BME280;70471;53.200;6.080;2023-12-14T03:30:53;101363.69;;;20.24;34.04
76122;BME280;70471;53.200;6.080;2023-12-14T03:35:45;101372.00;;;20.24;34.05
76122;BME280;70471;53.200;6.080;2023-12-14T03:40:38;101367.00;;;20.26;34.27
76122;BME280;70471;53.200;6.080;2023-12-14T03:45:29;101370.03;;;20.24;34.24
76122;BME280;70471;53.200;6.080;2023-12-14T03:50:21;101380.28;;;20.24;34.14
76122;BME280;70471;53.200;6.080;2023-12-14T03:55:12;101381.66;;;20.26;34.42
76122;BME280;70471;53.200;6.080;2023-12-14T04:00:09;101386.34;;;20.26;34.13
76122;BME280;70471;53.200;6.080;2023-12-14T04:05:00;101389.13;;;20.26;34.14
76122;BME280;70471;53.200;6.080;2023-12-14T04:09:52;101396.31;;;20.27;34.25
76122;BME280;70471;53.200;6.080;2023-12-14T04:14:43;101395.50;;;20.26;34.05
76122;BME280;70471;53.200;6.080;2023-12-14T04:19:37;101418.47;;;20.27;34.33
76122;BME280;70471;53.200;6.080;2023-12-14T04:24:29;101424.00;;;20.27;34.37
76122;BME280;70471;53.200;6.080;2023-12-14T04:29:20;101430.34;;;20.27;33.86
76122;BME280;70471;53.200;6.080;2023-12-14T04:34:12;101444.47;;;20.26;34.48
76122;BME280;70471;53.200;6.080;2023-12-14T04:39:07;101442.25;;;20.28;34.41
76122;BME280;70471;53.200;6.080;2023-12-14T04:43:58;101451.66;;;20.27;33.94
76122;BME280;70471;53.200;6.080;2023-12-14T04:48:50;101458.84;;;20.28;33.90
76122;BME280;70471;53.200;6.080;2023-12-14T04:53:41;101469.94;;;20.28;33.91
76122;BME280;70471;53.200;6.080;2023-12-14T04:58:34;101473.81;;;20.27;34.40
76122;BME280;70471;53.200;6.080;2023-12-14T05:03:25;101477.66;;;20.26;34.17
76122;BME280;70471;53.200;6.080;2023-12-14T05:08:17;101479.34;;;20.27;34.00
76122;BME280;70471;53.200;6.080;2023-12-14T05:13:08;101491.22;;;20.27;34.43
76122;BME280;70471;53.200;6.080;2023-12-14T05:18:01;101488.75;;;20.26;34.34
76122;BME280;70471;53.200;6.080;2023-12-14T05:22:52;101502.28;;;20.27;34.20
76122;BME280;70471;53.200;6.080;2023-12-14T05:27:44;101520.03;;;20.26;34.22
76122;BME280;70471;53.200;6.080;2023-12-14T05:32:35;101529.97;;;20.27;34.02
76122;BME280;70471;53.200;6.080;2023-12-14T05:37:28;101538.25;;;20.27;34.16
76122;BME280;70471;53.200;6.080;2023-12-14T05:42:19;101540.22;;;20.27;34.37
76122;BME280;70471;53.200;6.080;2023-12-14T05:47:11;101548.22;;;20.28;33.79
76122;BME280;70471;53.200;6.080;2023-12-14T05:52:02;101558.47;;;20.28;34.15
76122;BME280;70471;53.200;6.080;2023-12-14T05:56:55;101559.59;;;20.27;34.34
76122;BME280;70471;53.200;6.080;2023-12-14T06:01:46;101575.09;;;20.28;34.25
76122;BME280;70471;53.200;6.080;2023-12-14T06:06:38;101574.25;;;20.27;34.16
76122;BME280;70471;53.200;6.080;2023-12-14T06:11:29;101584.22;;;20.28;33.65
76122;BME280;70471;53.200;6.080;2023-12-14T06:16:22;101598.03;;;20.28;34.10
76122;BME280;70471;53.200;6.080;2023-12-14T06:21:13;101590.84;;;20.27;33.64
76122;BME280;70471;53.200;6.080;2023-12-14T06:26:04;101593.31;;;20.29;33.69
76122;BME280;70471;53.200;6.080;2023-12-14T06:30:56;101593.31;;;20.29;33.56
76122;BME280;70471;53.200;6.080;2023-12-14T06:35:48;101604.69;;;20.27;33.67
76122;BME280;70471;53.200;6.080;2023-12-14T06:40:40;101607.72;;;20.31;34.02
76122;BME280;70471;53.200;6.080;2023-12-14T06:45:32;101620.19;;;20.28;33.97
76122;BME280;70471;53.200;6.080;2023-12-14T06:50:23;101621.84;;;20.29;33.86
76122;BME280;70471;53.200;6.080;2023-12-14T06:55:16;101626.81;;;20.37;34.02
76122;BME280;70471;53.200;6.080;2023-12-14T07:00:09;101632.28;;;20.53;34.08
76122;BME280;70471;53.200;6.080;2023-12-14T07:05:00;101646.28;;;20.72;33.55
76122;BME280;70471;53.200;6.080;2023-12-14T07:09:52;101657.22;;;20.92;33.21
76122;BME280;70471;53.200;6.080;2023-12-14T07:14:44;101660.97;;;21.12;33.32
76122;BME280;70471;53.200;6.080;2023-12-14T07:19:36;101660.59;;;21.29;33.40
76122;BME280;70471;53.200;6.080;2023-12-14T07:24:27;101671.00;;;21.42;32.87
76122;BME280;70471;53.200;6.080;2023-12-14T07:29:19;101681.16;;;21.52;32.94
76122;BME280;70471;53.200;6.080;2023-12-14T07:34:12;101693.31;;;21.56;32.74
76122;BME280;70471;53.200;6.080;2023-12-14T07:39:04;101704.31;;;21.67;32.94
76122;BME280;70471;53.200;6.080;2023-12-14T07:43:56;101717.78;;;21.84;32.98
76122;BME280;70471;53.200;6.080;2023-12-14T07:48:48;101734.00;;;22.01;33.20
76122;BME280;70471;53.200;6.080;2023-12-14T07:53:41;101735.75;;;22.15;33.25
76122;BME280;70471;53.200;6.080;2023-12-14T07:58:33;101740.06;;;22.27;32.93
76122;BME280;70471;53.200;6.080;2023-12-14T08:03:24;101735.25;;;22.38;32.63
76122;BME280;70471;53.200;6.080;2023-12-14T08:08:16;101744.00;;;22.50;32.34
76122;BME280;70471;53.200;6.080;2023-12-14T08:13:09;101756.66;;;22.61;32.38
76122;BME280;70471;53.200;6.080;2023-12-14T08:18:00;101743.78;;;22.65;32.32
76122;BME280;70471;53.200;6.080;2023-12-14T08:22:51;101746.22;;;22.72;32.52
76122;BME280;70471;53.200;6.080;2023-12-14T08:27:43;101765.81;;;22.81;32.24
76122;BME280;70471;53.200;6.080;2023-12-14T08:32:36;101762.38;;;22.89;32.14
76122;BME280;70471;53.200;6.080;2023-12-14T08:37:27;101769.81;;;22.94;32.29
76122;BME280;70471;53.200;6.080;2023-12-14T08:42:19;101789.44;;;23.02;31.74
76122;BME280;70471;53.200;6.080;2023-12-14T08:47:10;101790.47;;;23.06;31.84
76122;BME280;70471;53.200;6.080;2023-12-14T08:52:04;101801.56;;;23.12;31.63
76122;BME280;70471;53.200;6.080;2023-12-14T08:56:55;101804.94;;;23.08;31.76
76122;BME280;70471;53.200;6.080;2023-12-14T09:01:46;101802.75;;;23.05;31.89
76122;BME280;70471;53.200;6.080;2023-12-14T09:06:38;101803.88;;;23.04;31.64
76122;BME280;70471;53.200;6.080;2023-12-14T09:11:33;101801.97;;;23.00;31.96
76122;BME280;70471;53.200;6.080;2023-12-14T09:16:26;101803.94;;;22.99;31.79
76122;BME280;70471;53.200;6.080;2023-12-14T09:21:17;101804.47;;;23.01;31.65
76122;BME280;70471;53.200;6.080;2023-12-14T09:26:09;101815.78;;;23.05;31.62
76122;BME280;70471;53.200;6.080;2023-12-14T09:31:02;101826.09;;;23.04;31.57
76122;BME280;70471;53.200;6.080;2023-12-14T09:35:54;101824.69;;;23.07;31.73
76122;BME280;70471;53.200;6.080;2023-12-14T09:40:45;101834.44;;;23.04;31.53
76122;BME280;70471;53.200;6.080;2023-12-14T09:45:38;101826.31;;;23.08;31.65
76122;BME280;70471;53.200;6.080;2023-12-14T09:50:37;101827.16;;;23.08;31.55
76122;BME280;70471;53.200;6.080;2023-12-14T09:55:30;101836.03;;;23.11;31.49
76122;BME280;70471;53.200;6.080;2023-12-14T10:00:35;101837.22;;;23.04;31.26
76122;BME280;70471;53.200;6.080;2023-12-14T10:05:28;101847.53;;;23.04;31.37
76122;BME280;70471;53.200;6.080;2023-12-14T10:10:20;101843.38;;;23.01;31.52
76122;BME280;70471;53.200;6.080;2023-12-14T10:15:12;101853.66;;;23.01;31.47
76122;BME280;70471;53.200;6.080;2023-12-14T10:20:04;101866.19;;;22.98;31.45
76122;BME280;70471;53.200;6.080;2023-12-14T10:24:56;101881.84;;;22.94;31.31
76122;BME280;70471;53.200;6.080;2023-12-14T10:29:49;101891.28;;;22.93;31.28
76122;BME280;70471;53.200;6.080;2023-12-14T10:34:41;101879.66;;;22.91;31.52
76122;BME280;70471;53.200;6.080;2023-12-14T10:39:33;101878.88;;;22.85;31.38
76122;BME280;70471;53.200;6.080;2023-12-14T10:44:27;101875.34;;;22.80;31.55
76122;BME280;70471;53.200;6.080;2023-12-14T10:49:20;101881.47;;;22.77;31.42
76122;BME280;70471;53.200;6.080;2023-12-14T10:54:11;101880.63;;;22.76;31.67
76122;BME280;70471;53.200;6.080;2023-12-14T10:59:03;101874.84;;;22.73;31.62
76122;BME280;70471;53.200;6.080;2023-12-14T11:03:56;101894.34;;;22.67;31.55
76122;BME280;70471;53.200;6.080;2023-12-14T11:08:51;101907.69;;;22.65;31.70
76122;BME280;70471;53.200;6.080;2023-12-14T11:13:45;101911.09;;;22.62;31.59
76122;BME280;70471;53.200;6.080;2023-12-14T11:18:37;101922.22;;;22.57;31.58
76122;BME280;70471;53.200;6.080;2023-12-14T11:23:33;101920.31;;;22.52;31.89
76122;BME280;70471;53.200;6.080;2023-12-14T11:28:27;101933.69;;;22.50;32.06
76122;BME280;70471;53.200;6.080;2023-12-14T11:33:19;101925.38;;;22.45;32.01
76122;BME280;70471;53.200;6.080;2023-12-14T11:38:11;101940.94;;;22.41;32.11
76122;BME280;70471;53.200;6.080;2023-12-14T11:43:03;101944.56;;;22.42;31.92
76122;BME280;70471;53.200;6.080;2023-12-14T11:47:58;101943.50;;;22.38;32.14
76122;BME280;70471;53.200;6.080;2023-12-14T11:52:50;101953.50;;;22.33;31.91
76122;BME280;70471;53.200;6.080;2023-12-14T11:57:46;101964.38;;;22.30;32.13
76122;BME280;70471;53.200;6.080;2023-12-14T12:02:37;101967.44;;;22.28;32.14
76122;BME280;70471;53.200;6.080;2023-12-14T12:07:32;101975.53;;;22.25;32.21
76122;BME280;70471;53.200;6.080;2023-12-14T12:12:23;101980.56;;;22.17;31.85
76122;BME280;70471;53.200;6.080;2023-12-14T12:17:15;101980.31;;;22.14;31.99
76122;BME280;70471;53.200;6.080;2023-12-14T12:22:06;101991.75;;;22.07;31.78
76122;BME280;70471;53.200;6.080;2023-12-14T12:26:59;101997.91;;;21.99;31.82
76122;BME280;70471;53.200;6.080;2023-12-14T12:31:50;101987.38;;;21.91;31.75
76122;BME280;70471;53.200;6.080;2023-12-14T12:36:42;101987.19;;;21.82;31.83
76122;BME280;70471;53.200;6.080;2023-12-14T12:41:33;101985.78;;;21.74;32.45
76122;BME280;70471;53.200;6.080;2023-12-14T12:46:28;101970.56;;;21.67;32.34
76122;BME280;70471;53.200;6.080;2023-12-14T12:51:20;101971.72;;;21.60;32.38
76122;BME280;70471;53.200;6.080;2023-12-14T12:56:11;101960.94;;;21.54;32.79
76122;BME280;70471;53.200;6.080;2023-12-14T13:01:03;101964.56;;;21.49;32.64
76122;BME280;70471;53.200;6.080;2023-12-14T13:05:56;101967.94;;;21.41;33.00
76122;BME280;70471;53.200;6.080;2023-12-14T13:10:47;101970.72;;;21.36;32.65
76122;BME280;70471;53.200;6.080;2023-12-14T13:15:41;101975.72;;;21.28;32.81
76122;BME280;70471;53.200;6.080;2023-12-14T13:20:33;101973.81;;;21.24;32.82
76122;BME280;70471;53.200;6.080;2023-12-14T13:25:25;101985.47;;;21.16;33.23
76122;BME280;70471;53.200;6.080;2023-12-14T13:30:17;101995.47;;;21.12;33.03
76122;BME280;70471;53.200;6.080;2023-12-14T13:35:09;102001.81;;;21.17;32.98
76122;BME280;70471;53.200;6.080;2023-12-14T13:40:00;102012.34;;;21.20;33.05
76122;BME280;70471;53.200;6.080;2023-12-14T13:44:54;102014.84;;;21.22;32.91
76122;BME280;70471;53.200;6.080;2023-12-14T13:49:46;102015.09;;;21.25;33.12
76122;BME280;70471;53.200;6.080;2023-12-14T13:54:37;102018.97;;;21.30;33.08
76122;BME280;70471;53.200;6.080;2023-12-14T13:59:29;102028.94;;;21.36;33.38
76122;BME280;70471;53.200;6.080;2023-12-14T14:04:22;102031.16;;;21.39;33.11
76122;BME280;70471;53.200;6.080;2023-12-14T14:09:13;102041.69;;;21.42;33.29
76122;BME280;70471;53.200;6.080;2023-12-14T14:14:05;102026.13;;;21.46;33.27
76122;BME280;70471;53.200;6.080;2023-12-14T14:18:56;102042.19;;;21.49;33.57
76122;BME280;70471;53.200;6.080;2023-12-14T14:23:50;102051.63;;;21.53;33.42
76122;BME280;70471;53.200;6.080;2023-12-14T14:28:41;102059.09;;;21.53;33.84
76122;BME280;70471;53.200;6.080;2023-12-14T14:33:32;102065.22;;;21.55;33.86
76122;BME280;70471;53.200;6.080;2023-12-14T14:38:24;102074.31;;;21.60;34.15
76122;BME280;70471;53.200;6.080;2023-12-14T14:43:17;102078.22;;;21.64;33.63
76122;BME280;70471;53.200;6.080;2023-12-14T14:48:09;102102.06;;;21.66;34.17
76122;BME280;70471;53.200;6.080;2023-12-14T14:53:00;102109.25;;;21.72;34.17
76122;BME280;70471;53.200;6.080;2023-12-14T14:57:52;102108.13;;;21.73;33.80
76122;BME280;70471;53.200;6.080;2023-12-14T15:02:44;102122.00;;;21.73;33.97
76122;BME280;70471;53.200;6.080;2023-12-14T15:07:36;102118.66;;;21.76;33.53
76122;BME280;70471;53.200;6.080;2023-12-14T15:12:27;102125.88;;;21.77;33.47
76122;BME280;70471;53.200;6.080;2023-12-14T15:17:19;102141.44;;;21.78;33.69
76122;BME280;70471;53.200;6.080;2023-12-14T15:22:12;102145.31;;;21.77;33.58
76122;BME280;70471;53.200;6.080;2023-12-14T15:27:03;102146.69;;;21.74;33.64
76122;BME280;70471;53.200;6.080;2023-12-14T15:31:55;102150.31;;;21.70;33.61
76122;BME280;70471;53.200;6.080;2023-12-14T15:36:46;102155.88;;;21.64;33.33
76122;BME280;70471;53.200;6.080;2023-12-14T15:41:39;102144.50;;;21.61;33.72
76122;BME280;70471;53.200;6.080;2023-12-14T15:46:30;102149.78;;;21.57;33.59
76122;BME280;70471;53.200;6.080;2023-12-14T15:51:22;102152.56;;;21.52;33.82
76122;BME280;70471;53.200;6.080;2023-12-14T15:56:13;102164.78;;;21.46;33.58
76122;BME280;70471;53.200;6.080;2023-12-14T16:01:07;102159.78;;;21.43;33.72
76122;BME280;70471;53.200;6.080;2023-12-14T16:05:58;102175.88;;;21.41;33.41
76122;BME280;70471;53.200;6.080;2023-12-14T16:10:49;102185.31;;;21.35;33.38
76122;BME280;70471;53.200;6.080;2023-12-14T16:15:43;102187.53;;;21.33;33.83
76122;BME280;70471;53.200;6.080;2023-12-14T16:20:36;102178.66;;;21.31;33.61
76122;BME280;70471;53.200;6.080;2023-12-14T16:25:27;102186.97;;;21.25;33.92
76122;BME280;70471;53.200;6.080;2023-12-14T16:30:18;102197.22;;;21.25;33.91
76122;BME280;70471;53.200;6.080;2023-12-14T16:35:10;102203.59;;;21.25;33.80
76122;BME280;70471;53.200;6.080;2023-12-14T16:40:06;102199.44;;;21.23;34.19
76122;BME280;70471;53.200;6.080;2023-12-14T16:44:58;102196.41;;;21.24;34.05
76122;BME280;70471;53.200;6.080;2023-12-14T16:49:49;102198.06;;;21.20;33.68
76122;BME280;70471;53.200;6.080;2023-12-14T16:54:40;102196.97;;;21.21;34.09
76122;BME280;70471;53.200;6.080;2023-12-14T16:59:33;102199.72;;;21.21;34.72
76122;BME280;70471;53.200;6.080;2023-12-14T17:04:27;102205.81;;;21.23;34.67
76122;BME280;70471;53.200;6.080;2023-12-14T17:09:18;102214.69;;;21.25;34.95
76122;BME280;70471;53.200;6.080;2023-12-14T17:14:10;102232.44;;;21.30;34.61
76122;BME280;70471;53.200;6.080;2023-12-14T17:19:04;102231.88;;;21.33;34.06
76122;BME280;70471;53.200;6.080;2023-12-14T17:23:56;102223.56;;;21.27;34.24
76122;BME280;70471;53.200;6.080;2023-12-14T17:28:49;102240.75;;;21.35;34.23
76122;BME280;70471;53.200;6.080;2023-12-14T17:33:41;102244.06;;;21.37;33.92
76122;BME280;70471;53.200;6.080;2023-12-14T17:38:34;102239.38;;;21.37;33.70
76122;BME280;70471;53.200;6.080;2023-12-14T17:43:25;102247.97;;;21.36;34.14
76122;BME280;70471;53.200;6.080;2023-12-14T17:48:16;102254.88;;;21.33;33.76
76122;BME280;70471;53.200;6.080;2023-12-14T17:53:08;102256.84;;;21.33;33.85
76122;BME280;70471;53.200;6.080;2023-12-14T17:58:01;102258.22;;;21.30;33.92
76122;BME280;70471;53.200;6.080;2023-12-14T18:02:52;102258.47;;;21.28;33.93
76122;BME280;70471;53.200;6.080;2023-12-14T18:07:43;102262.38;;;21.27;33.80
76122;BME280;70471;53.200;6.080;2023-12-14T18:12:35;102264.56;;;21.25;33.78
76122;BME280;70471;53.200;6.080;2023-12-14T18:17:28;102264.03;;;21.23;34.05
76122;BME280;70471;53.200;6.080;2023-12-14T18:22:19;102272.34;;;21.23;33.68
76122;BME280;70471;53.200;6.080;2023-12-14T18:27:13;102282.88;;;21.21;34.11
76122;BME280;70471;53.200;6.080;2023-12-14T18:32:05;102287.03;;;21.19;34.41
76122;BME280;70471;53.200;6.080;2023-12-14T18:36:58;102300.63;;;21.20;34.27
76122;BME280;70471;53.200;6.080;2023-12-14T18:41:50;102316.16;;;21.21;35.02
76122;BME280;70471;53.200;6.080;2023-12-14T18:46:41;102318.66;;;21.23;34.85
76122;BME280;70471;53.200;6.080;2023-12-14T18:51:35;102329.47;;;21.24;34.93
76122;BME280;70471;53.200;6.080;2023-12-14T18:56:28;102332.78;;;21.26;34.75
76122;BME280;70471;53.200;6.080;2023-12-14T19:01:19;102346.09;;;21.30;34.34
76122;BME280;70471;53.200;6.080;2023-12-14T19:06:11;102343.59;;;21.33;34.76
76122;BME280;70471;53.200;6.080;2023-12-14T19:11:04;102335.00;;;21.35;34.20
76122;BME280;70471;53.200;6.080;2023-12-14T19:15:56;102343.34;;;21.40;34.13
76122;BME280;70471;53.200;6.080;2023-12-14T19:20:48;102342.78;;;21.43;34.18
76122;BME280;70471;53.200;6.080;2023-12-14T19:25:39;102338.38;;;21.47;34.15
76122;BME280;70471;53.200;6.080;2023-12-14T19:30:31;102329.22;;;21.52;34.33
76122;BME280;70471;53.200;6.080;2023-12-14T19:35:23;102344.47;;;21.54;34.24
76122;BME280;70471;53.200;6.080;2023-12-14T19:40:15;102348.63;;;21.57;34.10
76122;BME280;70471;53.200;6.080;2023-12-14T19:45:07;102347.53;;;21.58;33.91
76122;BME280;70471;53.200;6.080;2023-12-14T19:49:59;102350.31;;;21.63;33.79
76122;BME280;70471;53.200;6.080;2023-12-14T19:54:52;102354.75;;;21.64;33.93
76122;BME280;70471;53.200;6.080;2023-12-14T19:59:44;102363.34;;;21.68;33.93
76122;BME280;70471;53.200;6.080;2023-12-14T20:04:37;102377.22;;;21.68;34.05
76122;BME280;70471;53.200;6.080;2023-12-14T20:09:28;102371.94;;;21.71;33.86
76122;BME280;70471;53.200;6.080;2023-12-14T20:14:21;102385.00;;;21.76;34.28
76122;BME280;70471;53.200;6.080;2023-12-14T20:19:13;102379.72;;;21.74;33.84
76122;BME280;70471;53.200;6.080;2023-12-14T20:24:05;102394.47;;;21.80;33.90
76122;BME280;70471;53.200;6.080;2023-12-14T20:28:57;102392.81;;;21.84;34.08
76122;BME280;70471;53.200;6.080;2023-12-14T20:33:50;102400.03;;;21.85;33.62
76122;BME280;70471;53.200;6.080;2023-12-14T20:38:42;102395.56;;;21.79;34.06
76122;BME280;70471;53.200;6.080;2023-12-14T20:43:34;102406.41;;;21.86;33.83
76122;BME280;70471;53.200;6.080;2023-12-14T20:48:25;102413.34;;;21.83;33.77
76122;BME280;70471;53.200;6.080;2023-12-14T20:53:18;102405.56;;;21.85;34.16
76122;BME280;70471;53.200;6.080;2023-12-14T20:58:10;102414.44;;;21.87;34.30
76122;BME280;70471;53.200;6.080;2023-12-14T21:03:03;102427.22;;;21.88;34.23
76122;BME280;70471;53.200;6.080;2023-12-14T21:07:54;102420.00;;;21.92;33.73
76122;BME280;70471;53.200;6.080;2023-12-14T21:12:47;102418.91;;;21.93;33.87
76122;BME280;70471;53.200;6.080;2023-12-14T21:17:38;102421.13;;;21.96;33.81
76122;BME280;70471;53.200;6.080;2023-12-14T21:22:30;102416.97;;;21.99;33.99
76122;BME280;70471;53.200;6.080;2023-12-14T21:27:21;102410.56;;;21.98;33.40
76122;BME280;70471;53.200;6.080;2023-12-14T21:32:32;102415.03;;;21.94;33.36
76122;BME280;70471;53.200;6.080;2023-12-14T21:37:23;102416.41;;;21.92;33.66
76122;BME280;70471;53.200;6.080;2023-12-14T21:42:15;102414.72;;;21.91;32.98
76122;BME280;70471;53.200;6.080;2023-12-14T21:47:06;102428.59;;;21.91;32.78
76122;BME280;70471;53.200;6.080;2023-12-14T21:51:59;102444.69;;;21.89;32.97
76122;BME280;70471;53.200;6.080;2023-12-14T21:56:50;102442.19;;;21.87;32.63
76122;BME280;70471;53.200;6.080;2023-12-14T22:01:41;102442.75;;;21.84;32.89
76122;BME280;70471;53.200;6.080;2023-12-14T22:06:33;102439.16;;;21.78;32.65
76122;BME280;70471;53.200;6.080;2023-12-14T22:11:25;102449.09;;;21.74;32.69
76122;BME280;70471;53.200;6.080;2023-12-14T22:16:17;102443.25;;;21.71;32.59
76122;BME280;70471;53.200;6.080;2023-12-14T22:21:08;102447.66;;;21.67;32.57
76122;BME280;70471;53.200;6.080;2023-12-14T22:26:00;102448.75;;;21.60;32.44
76122;BME280;70471;53.200;6.080;2023-12-14T22:30:53;102448.75;;;21.55;32.39
76122;BME280;70471;53.200;6.080;2023-12-14T22:35:44;102457.34;;;21.54;32.33
76122;BME280;70471;53.200;6.080;2023-12-14T22:40:36;102456.25;;;21.50;32.19
76122;BME280;70471;53.200;6.080;2023-12-14T22:45:27;102458.72;;;21.46;32.24
76122;BME280;70471;53.200;6.080;2023-12-14T22:50:22;102458.69;;;21.41;32.25
76122;BME280;70471;53.200;6.080;2023-12-14T22:55:13;102460.34;;;21.37;32.49
76122;BME280;70471;53.200;6.080;2023-12-14T23:00:06;102462.56;;;21.35;32.28
76122;BME280;70471;53.200;6.080;2023-12-14T23:05:02;102460.84;;;21.28;32.33
76122;BME280;70471;53.200;6.080;2023-12-14T23:09:55;102475.00;;;21.27;32.65
76122;BME280;70471;53.200;6.080;2023-12-14T23:14:46;102481.06;;;21.24;32.21
76122;BME280;70471;53.200;6.080;2023-12-14T23:19:38;102494.66;;;21.20;32.50
76122;BME280;70471;53.200;6.080;2023-12-14T23:24:29;102502.94;;;21.15;32.19
76122;BME280;70471;53.200;6.080;2023-12-14T23:29:22;102512.88;;;21.11;32.70
76122;BME280;70471;53.200;6.080;2023-12-14T23:34:13;102516.19;;;21.08;32.42
76122;BME280;70471;53.200;6.080;2023-12-14T23:39:05;102522.50;;;21.03;32.68
76122;BME280;70471;53.200;6.080;2023-12-14T23:43:56;102526.66;;;21.01;32.70
76122;BME280;70471;53.200;6.080;2023-12-14T23:48:50;102532.75;;;20.98;32.33
76122;BME280;70471;53.200;6.080;2023-12-14T23:53:43;102541.59;;;20.95;32.40
76122;BME280;70471;53.200;6.080;2023-12-14T23:58:34;102547.66;;;20.91;32.48
